Ray, Minnesota
Current Conditions -  °F | °C
As of 6:55 PM on Saturday 25 Oct 2014 (Local Time) from KINL Reporting Station
Clear Clear  
Wind Chill: 43°   Ceiling: Unl
Heat Index: 46°   Visibility: 10mi
Dew Point: 28°   Wind: 6mph
Humidity: 50%   Direction: 280°W
Pressure: 29.94"   Gusts: NA
Location:  48.41°N, 93.21°W
Report Text: KINL 252355Z AUTO 28005KT 10SM CLR 08/M02 A2994 RMK AO2 SLP150 T00781022 10122 20078 51009
Loading
Personal Weather Stations






























Interactive Weather Map
Tropical Storm Tracking
New forecast layout! Learn more

10-Day Weather Forecast

Advertisements
Track Severe Weather on mobile